createdAt,value
2019-01-30T00:00:47.769Z,11.77
2019-01-30T00:03:18.255Z,12.47
2019-01-30T00:05:53.432Z,11.60
2019-01-30T00:08:26.026Z,12.47
2019-01-30T00:10:57.647Z,11.17
2019-01-30T00:13:34.816Z,12.27
2019-01-30T00:16:06.648Z,11.70
2019-01-30T00:18:39.060Z,11.63
2019-01-30T00:21:10.930Z,11.30
2019-01-30T00:23:41.882Z,12.20
2019-01-30T00:26:13.046Z,12.73
2019-01-30T00:28:44.481Z,11.43
2019-01-30T00:31:15.618Z,10.67
2019-01-30T00:33:47.102Z,10.87
2019-01-30T00:36:18.498Z,11.77
2019-01-30T00:38:49.665Z,11.67
2019-01-30T00:41:20.499Z,11.37
2019-01-30T00:43:51.661Z,12.77
2019-01-30T00:46:23.400Z,11.97
2019-01-30T00:48:54.547Z,12.97
2019-01-30T00:51:26.026Z,10.63
2019-01-30T00:53:57.437Z,11.97
2019-01-30T00:56:28.292Z,12.07
2019-01-30T00:58:59.461Z,12.77
2019-01-30T01:01:29.863Z,13.33
2019-01-30T01:04:00.794Z,11.60
2019-01-30T01:06:31.294Z,11.10
2019-01-30T01:09:04.003Z,11.03
2019-01-30T01:11:34.842Z,11.13
2019-01-30T01:14:06.286Z,11.90
2019-01-30T01:16:37.445Z,12.43
2019-01-30T01:19:08.907Z,12.70
2019-01-30T01:21:40.074Z,11.20
2019-01-30T01:24:11.478Z,11.00
2019-01-30T01:26:42.930Z,10.03
2019-01-30T01:29:13.767Z,11.40
2019-01-30T01:31:45.214Z,11.10
2019-01-30T01:34:16.661Z,11.37
2019-01-30T01:36:47.501Z,11.83
2019-01-30T01:39:18.646Z,12.30
2019-01-30T01:41:49.474Z,12.07
2019-01-30T01:44:20.929Z,11.97
2019-01-30T01:46:52.249Z,10.47
2019-01-30T01:49:23.222Z,11.70
2019-01-30T01:51:54.371Z,11.17
2019-01-30T01:54:25.815Z,10.97
2019-01-30T01:56:57.225Z,12.10
2019-01-30T01:59:28.405Z,12.00
2019-01-30T02:01:59.550Z,10.97
2019-01-30T02:04:30.694Z,10.87
2019-01-30T02:07:02.146Z,10.43
2019-01-30T02:09:32.986Z,11.33
2019-01-30T02:12:03.822Z,11.37
2019-01-30T02:14:34.372Z,12.57
2019-01-30T02:17:05.201Z,12.73
2019-01-30T02:19:35.598Z,12.50
2019-01-30T02:22:06.552Z,11.53
2019-01-30T02:24:36.890Z,12.80
2019-01-30T02:27:07.760Z,10.67
2019-01-30T02:29:38.631Z,10.63
2019-01-30T02:32:09.599Z,10.30
2019-01-30T02:34:40.003Z,11.00
2019-01-30T02:37:10.641Z,11.63
2019-01-30T02:39:42.263Z,12.47
2019-01-30T02:42:13.179Z,12.13
2019-01-30T02:44:43.573Z,10.67
2019-01-30T02:47:14.293Z,12.23
2019-01-30T02:49:44.711Z,11.50
2019-01-30T02:52:15.602Z,11.57
2019-01-30T02:54:46.005Z,11.90
2019-01-30T02:57:16.753Z,12.17
2019-01-30T02:59:47.134Z,11.60
2019-01-30T03:02:24.675Z,12.10
2019-01-30T03:04:54.953Z,12.30
2019-01-30T03:07:25.706Z,12.40
2019-01-30T03:09:56.047Z,12.23
2019-01-30T03:12:27.069Z,12.23
2019-01-30T03:14:58.165Z,11.07
2019-01-30T03:17:29.049Z,12.33
2019-01-30T03:20:00.311Z,11.80
2019-01-30T03:22:31.334Z,11.50
2019-01-30T03:25:02.739Z,10.73
2019-01-30T03:27:33.650Z,12.03
2019-01-30T03:30:05.689Z,11.57
2019-01-30T03:32:37.148Z,11.00
2019-01-30T03:35:08.221Z,12.23
2019-01-30T03:37:39.427Z,13.47
2019-01-30T03:40:12.774Z,11.83
2019-01-30T03:42:43.578Z,12.97
2019-01-30T03:45:16.069Z,12.97
2019-01-30T03:47:46.771Z,12.83
2019-01-30T03:50:17.203Z,11.93
2019-01-30T03:52:48.154Z,13.40
2019-01-30T03:55:19.065Z,12.83
2019-01-30T03:57:49.805Z,12.20
2019-01-30T04:00:23.600Z,11.17
2019-01-30T04:02:54.870Z,11.93
2019-01-30T04:05:25.267Z,13.30
2019-01-30T04:07:56.295Z,13.30
2019-01-30T04:10:26.808Z,12.50
2019-01-30T04:12:57.835Z,14.47
2019-01-30T04:15:29.346Z,13.80
2019-01-30T04:18:00.179Z,14.23
2019-01-30T04:20:31.613Z,11.87
2019-01-30T04:23:02.765Z,12.37
2019-01-30T04:25:33.919Z,12.90
2019-01-30T04:28:05.461Z,12.67
2019-01-30T04:30:36.821Z,12.87
2019-01-30T04:33:07.995Z,12.07
2019-01-30T04:35:39.109Z,12.43
2019-01-30T04:38:10.282Z,13.77
2019-01-30T04:40:41.104Z,12.33
2019-01-30T04:43:12.235Z,14.20
2019-01-30T04:45:43.073Z,14.10
2019-01-30T04:48:14.468Z,13.00
2019-01-30T04:50:45.358Z,13.33
2019-01-30T04:53:16.507Z,13.03
2019-01-30T04:55:47.339Z,12.33
2019-01-30T04:58:19.095Z,12.67
2019-01-30T05:00:49.931Z,13.83
2019-01-30T05:03:20.936Z,12.87
2019-01-30T05:05:51.609Z,12.97
2019-01-30T05:08:22.035Z,12.40
2019-01-30T05:10:52.668Z,13.80
2019-01-30T05:13:24.625Z,12.93
2019-01-30T05:15:55.595Z,13.07
2019-01-30T05:18:26.410Z,13.60
2019-01-30T05:20:57.845Z,12.30
2019-01-30T05:23:29.003Z,12.87
2019-01-30T05:26:00.442Z,14.67
2019-01-30T05:28:31.282Z,11.93
2019-01-30T05:31:02.428Z,13.40
2019-01-30T05:33:33.370Z,13.43
2019-01-30T05:36:04.405Z,13.57
2019-01-30T05:38:35.859Z,14.00
2019-01-30T05:41:06.694Z,12.83
2019-01-30T05:43:37.876Z,12.60
2019-01-30T05:46:08.985Z,13.37
2019-01-30T05:48:40.384Z,14.27
2019-01-30T05:51:11.577Z,14.53
2019-01-30T05:53:43.032Z,12.60
2019-01-30T05:56:14.627Z,12.43
2019-01-30T05:58:45.941Z,13.87
2019-01-30T06:01:17.068Z,13.87
2019-01-30T06:03:48.522Z,12.37
2019-01-30T06:06:19.663Z,13.90
2019-01-30T06:08:50.534Z,14.47
2019-01-30T06:11:21.646Z,12.87
2019-01-30T06:13:52.644Z,12.00
2019-01-30T06:16:25.162Z,12.27
2019-01-30T06:18:56.097Z,14.43
2019-01-30T06:21:27.480Z,14.17
2019-01-30T06:23:58.902Z,13.77
2019-01-30T06:26:30.046Z,14.00
2019-01-30T06:29:01.428Z,13.40
2019-01-30T06:31:32.638Z,14.23
2019-01-30T06:34:03.780Z,13.03
2019-01-30T06:36:34.621Z,14.83
2019-01-30T06:39:07.873Z,12.37
2019-01-30T06:41:39.362Z,14.97
2019-01-30T06:44:10.470Z,13.77
2019-01-30T06:46:41.658Z,14.50
2019-01-30T06:49:13.212Z,13.60
2019-01-30T06:51:44.242Z,14.30
2019-01-30T06:54:15.082Z,13.23
2019-01-30T06:56:46.529Z,14.30
2019-01-30T06:59:18.289Z,14.27
2019-01-30T07:01:49.741Z,13.90
2019-01-30T07:04:21.190Z,14.23
2019-01-30T07:06:52.333Z,13.57
2019-01-30T07:09:23.483Z,15.57
2019-01-30T07:11:54.623Z,13.33
2019-01-30T07:14:26.073Z,14.37
2019-01-30T07:16:57.216Z,15.23
2019-01-30T07:19:28.697Z,13.47
2019-01-30T07:21:59.770Z,12.93
2019-01-30T07:24:30.711Z,14.00
2019-01-30T07:27:01.517Z,15.00
2019-01-30T07:29:33.240Z,14.57
2019-01-30T07:32:04.997Z,13.97
2019-01-30T07:34:36.146Z,17.57
2019-01-30T07:37:07.011Z,15.17
2019-01-30T07:39:37.850Z,14.33
2019-01-30T07:42:08.729Z,14.50
2019-01-30T07:44:44.691Z,13.87
2019-01-30T07:47:12.477Z,14.47
2019-01-30T07:49:44.059Z,13.70
2019-01-30T07:52:15.686Z,14.50
2019-01-30T07:54:46.810Z,13.37
2019-01-30T07:57:17.697Z,15.50
2019-01-30T07:59:49.110Z,14.97
2019-01-30T08:02:21.909Z,18.17
2019-01-30T08:04:52.634Z,18.00
2019-01-30T08:07:24.136Z,16.03
2019-01-30T08:09:55.221Z,15.53
2019-01-30T08:12:26.072Z,15.37
2019-01-30T08:14:56.871Z,17.30
2019-01-30T08:17:28.335Z,13.77
2019-01-30T08:19:59.394Z,15.83
2019-01-30T08:22:30.227Z,16.40
2019-01-30T08:25:01.889Z,16.67
2019-01-30T08:27:34.061Z,17.00
2019-01-30T08:30:08.198Z,17.30
2019-01-30T08:32:41.268Z,16.17
2019-01-30T08:35:12.673Z,18.47
2019-01-30T08:37:45.871Z,17.00
2019-01-30T08:40:17.156Z,21.30
2019-01-30T08:42:48.283Z,20.97
2019-01-30T08:45:21.786Z,22.43
2019-01-30T08:47:52.749Z,20.93
2019-01-30T08:50:23.870Z,24.40
2019-01-30T08:52:55.063Z,21.97
2019-01-30T08:55:26.138Z,22.70
2019-01-30T08:57:57.255Z,23.93
2019-01-30T09:00:29.058Z,22.30
2019-01-30T09:03:00.530Z,24.27
2019-01-30T09:05:30.917Z,22.82
2019-01-30T09:08:01.572Z,22.63
2019-01-30T09:10:32.012Z,26.70
2019-01-30T09:13:04.773Z,24.03
2019-01-30T09:15:35.614Z,22.33
2019-01-30T09:18:06.909Z,22.27
2019-01-30T09:20:37.867Z,24.30
2019-01-30T09:23:08.733Z,24.23
2019-01-30T09:25:39.081Z,25.33
2019-01-30T09:28:09.791Z,22.53
2019-01-30T09:30:40.419Z,23.23
2019-01-30T09:33:12.313Z,25.60
2019-01-30T09:35:42.684Z,24.67
2019-01-30T09:38:13.755Z,22.03
2019-01-30T09:40:44.102Z,25.27
2019-01-30T09:43:14.820Z,23.67
2019-01-30T09:45:45.559Z,23.77
2019-01-30T09:48:16.792Z,23.60
2019-01-30T09:50:47.161Z,24.07
2019-01-30T09:53:17.849Z,24.07
2019-01-30T09:55:48.451Z,23.73
2019-01-30T09:58:19.522Z,23.27
2019-01-30T10:00:50.334Z,24.47
2019-01-30T10:03:21.199Z,26.40
2019-01-30T10:05:51.542Z,26.43
2019-01-30T10:08:22.458Z,25.20
2019-01-30T10:10:52.726Z,25.67
2019-01-30T10:13:25.097Z,25.10
2019-01-30T10:15:56.608Z,25.17
2019-01-30T10:18:27.763Z,24.17
2019-01-30T10:20:59.202Z,27.57
2019-01-30T10:23:30.650Z,22.60
2019-01-30T10:26:01.298Z,23.40
2019-01-30T10:28:32.081Z,23.57
2019-01-30T10:31:02.356Z,24.17
2019-01-30T10:33:33.689Z,24.20
2019-01-30T10:36:04.910Z,22.97
2019-01-30T10:38:35.570Z,23.83
2019-01-30T10:41:06.389Z,24.23
2019-01-30T10:43:37.359Z,23.10
2019-01-30T10:46:07.705Z,23.90
2019-01-30T10:48:39.026Z,24.60
2019-01-30T10:51:09.221Z,23.30
2019-01-30T10:53:40.182Z,23.50
2019-01-30T10:56:11.300Z,23.93
2019-01-30T10:58:41.978Z,25.67
2019-01-30T11:01:12.381Z,23.73
2019-01-30T11:03:43.426Z,22.23
2019-01-30T11:06:13.862Z,25.43
2019-01-30T11:08:45.218Z,22.47
2019-01-30T11:11:16.974Z,23.67
2019-01-30T11:13:47.520Z,25.40
2019-01-30T11:16:19.002Z,25.80
2019-01-30T11:18:50.618Z,24.17
2019-01-30T11:21:21.875Z,26.67
2019-01-30T11:23:53.286Z,25.93
2019-01-30T11:26:24.741Z,24.03
2019-01-30T11:28:56.110Z,26.40
2019-01-30T11:31:27.522Z,25.97
2019-01-30T11:34:07.331Z,26.10
2019-01-30T11:36:31.038Z,25.47
2019-01-30T11:39:01.990Z,22.93
2019-01-30T11:41:33.939Z,24.53
2019-01-30T11:44:05.202Z,24.53
2019-01-30T11:46:36.151Z,24.57
2019-01-30T11:49:07.503Z,25.23
2019-01-30T11:51:37.902Z,24.43
2019-01-30T11:54:08.854Z,25.73
2019-01-30T11:56:39.653Z,23.43
2019-01-30T11:59:10.526Z,25.80
2019-01-30T12:01:40.958Z,24.93
2019-01-30T12:04:17.806Z,24.50
2019-01-30T12:06:43.550Z,25.93
2019-01-30T12:09:14.271Z,24.03
2019-01-30T12:11:44.946Z,25.30
2019-01-30T12:14:15.629Z,23.87
2019-01-30T12:16:46.751Z,23.70
2019-01-30T12:19:17.830Z,23.33
2019-01-30T12:21:49.313Z,24.50
2019-01-30T12:24:20.736Z,24.67
2019-01-30T12:26:51.774Z,25.10
2019-01-30T12:29:22.805Z,23.70
2019-01-30T12:31:53.857Z,23.23
2019-01-30T12:34:28.282Z,22.90
2019-01-30T12:36:57.402Z,24.13
2019-01-30T12:39:28.314Z,25.73
2019-01-30T12:41:59.350Z,26.23
2019-01-30T12:44:30.505Z,23.93
2019-01-30T12:47:01.639Z,25.23
2019-01-30T12:49:33.091Z,23.03
2019-01-30T12:52:04.542Z,25.60
2019-01-30T12:54:35.706Z,23.60
2019-01-30T12:57:07.144Z,25.60
2019-01-30T12:59:37.554Z,23.93
2019-01-30T13:02:08.797Z,22.20
2019-01-30T13:04:39.209Z,23.20
2019-01-30T13:07:09.901Z,23.57
2019-01-30T13:09:40.205Z,26.43
2019-01-30T13:12:10.928Z,22.27
2019-01-30T13:14:41.342Z,25.23
2019-01-30T13:17:12.289Z,24.00
2019-01-30T13:19:43.764Z,23.10
2019-01-30T13:22:15.506Z,23.63
2019-01-30T13:24:47.574Z,23.40
2019-01-30T13:27:19.025Z,22.43
2019-01-30T13:29:52.254Z,24.40
2019-01-30T13:32:23.457Z,23.57
2019-01-30T13:34:54.638Z,26.62
2019-01-30T13:37:25.941Z,24.40
2019-01-30T13:39:56.885Z,24.63
2019-01-30T13:42:28.041Z,24.80
2019-01-30T13:44:59.786Z,24.13
2019-01-30T13:47:32.781Z,22.70
2019-01-30T13:50:03.618Z,24.93
2019-01-30T13:52:34.802Z,25.07
2019-01-30T13:55:05.938Z,23.43
2019-01-30T13:57:36.737Z,23.77
2019-01-30T14:00:12.615Z,23.67
2019-01-30T14:02:43.323Z,28.33
2019-01-30T14:05:13.993Z,25.10
2019-01-30T14:07:44.646Z,25.20
2019-01-30T14:10:15.339Z,37.80
2019-01-30T14:12:45.985Z,32.50
2019-01-30T14:15:18.365Z,30.57
2019-01-30T14:17:49.222Z,30.83
2019-01-30T14:20:20.126Z,31.40
2019-01-30T14:22:51.242Z,28.03
2019-01-30T14:25:22.415Z,27.87
2019-01-30T14:27:53.565Z,29.17
2019-01-30T14:30:32.710Z,26.17
2019-01-30T14:33:03.805Z,25.97
2019-01-30T14:35:40.485Z,23.70
2019-01-30T14:38:12.014Z,25.27
2019-01-30T14:40:43.553Z,26.60
2019-01-30T14:43:14.965Z,26.60
2019-01-30T14:45:46.642Z,26.13
2019-01-30T14:48:18.054Z,26.53
2019-01-30T14:50:49.339Z,24.97
2019-01-30T14:53:20.331Z,23.17
2019-01-30T14:55:51.742Z,25.57
2019-01-30T14:58:24.845Z,26.57
2019-01-30T15:00:55.095Z,24.33
2019-01-30T15:03:26.072Z,25.77
2019-01-30T15:05:56.551Z,25.43
2019-01-30T15:08:27.579Z,25.97
2019-01-30T15:10:57.828Z,29.30
2019-01-30T15:13:29.171Z,27.30
2019-01-30T15:15:59.507Z,27.20
2019-01-30T15:18:30.387Z,28.53
2019-01-30T15:21:01.737Z,25.43
2019-01-30T15:23:32.186Z,25.27
2019-01-30T15:26:03.394Z,28.50
2019-01-30T15:28:34.934Z,24.73
2019-01-30T15:31:06.214Z,24.73
2019-01-30T15:33:36.633Z,27.03
2019-01-30T15:36:07.618Z,24.77
2019-01-30T15:38:38.041Z,27.27
2019-01-30T15:41:08.981Z,26.30
2019-01-30T15:43:39.339Z,26.03
2019-01-30T15:46:10.041Z,23.70
2019-01-30T15:48:40.466Z,24.93
2019-01-30T15:51:11.205Z,25.17
2019-01-30T15:53:41.521Z,24.20
2019-01-30T15:56:12.181Z,24.50
2019-01-30T15:58:42.570Z,26.17
2019-01-30T16:01:18.137Z,25.27
2019-01-30T16:03:48.485Z,26.33
2019-01-30T16:06:19.497Z,24.73
2019-01-30T16:08:49.910Z,25.60
2019-01-30T16:11:20.757Z,26.20
2019-01-30T16:13:51.218Z,26.30
2019-01-30T16:16:21.986Z,29.50
2019-01-30T16:18:52.757Z,28.27
2019-01-30T16:21:23.594Z,27.27
2019-01-30T16:23:55.046Z,27.17
2019-01-30T16:26:26.195Z,28.07
2019-01-30T16:28:57.053Z,31.73
2019-01-30T16:31:28.129Z,28.10
2019-01-30T16:33:59.618Z,30.17
2019-01-30T16:36:36.755Z,27.80
2019-01-30T16:39:10.262Z,28.93
2019-01-30T16:41:41.974Z,29.77
2019-01-30T16:44:12.999Z,30.47
2019-01-30T16:46:46.427Z,31.20
2019-01-30T16:49:19.843Z,29.67
2019-01-30T16:51:51.523Z,30.53
2019-01-30T16:54:26.224Z,31.37
2019-01-30T16:56:57.774Z,29.70
2019-01-30T16:59:29.237Z,31.93
2019-01-30T17:02:00.378Z,31.23
2019-01-30T17:04:38.699Z,32.97
2019-01-30T17:07:10.823Z,30.68
2019-01-30T17:09:42.666Z,31.43
2019-01-30T17:12:14.277Z,34.33
2019-01-30T17:14:46.888Z,32.53
2019-01-30T17:17:28.028Z,32.23
2019-01-30T17:20:00.906Z,32.17
2019-01-30T17:22:32.213Z,34.00
2019-01-30T17:25:04.267Z,31.13
2019-01-30T17:27:36.736Z,32.07
2019-01-30T17:30:22.926Z,31.47
2019-01-30T17:32:55.097Z,30.43
2019-01-30T17:35:26.411Z,29.13
2019-01-30T17:37:57.211Z,30.23
2019-01-30T17:40:28.306Z,28.97
2019-01-30T17:42:58.730Z,29.20
2019-01-30T17:45:29.256Z,27.57
2019-01-30T17:48:07.548Z,30.07
2019-01-30T17:50:38.142Z,30.43
2019-01-30T17:53:08.492Z,27.33
2019-01-30T17:55:39.194Z,30.97
2019-01-30T17:58:09.888Z,32.70
2019-01-30T18:00:50.990Z,29.83
2019-01-30T18:03:21.734Z,31.70
2019-01-30T18:05:52.678Z,30.87
2019-01-30T18:08:23.121Z,29.87
2019-01-30T18:10:53.851Z,28.67
2019-01-30T18:13:24.382Z,29.13
2019-01-30T18:15:54.949Z,28.20
2019-01-30T18:18:25.486Z,32.57
2019-01-30T18:20:56.190Z,27.83
2019-01-30T18:23:26.780Z,26.70
2019-01-30T18:25:57.275Z,29.87
2019-01-30T18:28:27.807Z,27.83
2019-01-30T18:30:58.279Z,27.67
2019-01-30T18:33:28.937Z,28.80
2019-01-30T18:35:59.402Z,30.90
2019-01-30T18:38:29.949Z,27.97
2019-01-30T18:41:00.641Z,28.40
2019-01-30T18:43:31.317Z,27.53
2019-01-30T18:46:02.684Z,26.80
2019-01-30T18:48:33.389Z,28.70
2019-01-30T18:51:04.356Z,26.60
2019-01-30T18:53:35.090Z,27.23
2019-01-30T18:56:06.546Z,24.83
2019-01-30T18:58:36.798Z,27.40
2019-01-30T19:01:07.228Z,27.03
2019-01-30T19:03:37.925Z,29.43
2019-01-30T19:06:08.234Z,26.87
2019-01-30T19:08:38.794Z,26.67
2019-01-30T19:11:11.348Z,27.77
2019-01-30T19:13:42.627Z,27.40
2019-01-30T19:16:12.918Z,29.17
2019-01-30T19:18:43.555Z,26.47
2019-01-30T19:21:14.763Z,29.10
2019-01-30T19:23:45.885Z,24.07
2019-01-30T19:26:16.901Z,27.90
2019-01-30T19:28:47.818Z,26.70
2019-01-30T19:31:19.849Z,23.80
2019-01-30T19:33:52.566Z,25.50
2019-01-30T19:36:33.774Z,23.97
2019-01-30T19:39:09.862Z,24.80
2019-01-30T19:41:40.986Z,24.90
2019-01-30T19:44:12.213Z,26.30
2019-01-30T19:46:43.698Z,26.00
2019-01-30T19:49:14.834Z,26.93
2019-01-30T19:51:45.843Z,24.73
2019-01-30T19:54:17.147Z,26.00
2019-01-30T19:56:48.244Z,26.77
2019-01-30T19:59:18.944Z,24.57
2019-01-30T20:01:50.145Z,23.97
2019-01-30T20:04:22.143Z,24.97
2019-01-30T20:06:54.509Z,26.03
2019-01-30T20:09:25.904Z,24.50
2019-01-30T20:11:56.479Z,26.83
2019-01-30T20:14:27.150Z,23.70
2019-01-30T20:16:58.614Z,25.43
2019-01-30T20:19:29.430Z,26.37
2019-01-30T20:22:00.516Z,28.33
2019-01-30T20:24:33.258Z,24.53
2019-01-30T20:27:04.094Z,24.33
2019-01-30T20:29:35.501Z,26.03
2019-01-30T20:32:07.297Z,23.50
2019-01-30T20:34:38.142Z,27.77
2019-01-30T20:37:09.324Z,24.10
2019-01-30T20:39:41.361Z,25.37
2019-01-30T20:42:12.190Z,24.47
2019-01-30T20:44:43.634Z,22.57
2019-01-30T20:47:14.487Z,25.67
2019-01-30T20:49:45.731Z,23.13
2019-01-30T20:52:16.795Z,24.30
2019-01-30T20:54:47.937Z,23.23
2019-01-30T20:57:18.771Z,25.73
2019-01-30T20:59:49.878Z,23.77
2019-01-30T21:02:20.367Z,26.57
2019-01-30T21:04:51.553Z,23.73
2019-01-30T21:07:22.462Z,24.20
2019-01-30T21:09:53.541Z,24.97
2019-01-30T21:12:23.934Z,25.50
2019-01-30T21:14:54.590Z,25.40
2019-01-30T21:17:25.639Z,23.57
2019-01-30T21:19:56.280Z,22.97
2019-01-30T21:22:27.046Z,23.90
2019-01-30T21:24:58.303Z,23.57
2019-01-30T21:27:29.439Z,21.83
2019-01-30T21:30:00.842Z,24.33
2019-01-30T21:32:32.295Z,24.37
2019-01-30T21:35:04.051Z,22.50
2019-01-30T21:37:35.261Z,24.07
2019-01-30T21:40:08.502Z,22.03
2019-01-30T21:42:42.385Z,23.60
2019-01-30T21:45:15.074Z,23.47
2019-01-30T21:47:46.345Z,21.67
2019-01-30T21:50:17.418Z,21.53
2019-01-30T21:52:48.745Z,25.77
2019-01-30T21:55:43.007Z,22.10
2019-01-30T21:58:15.874Z,23.77
2019-01-30T22:00:47.118Z,22.00
2019-01-30T22:03:18.599Z,22.17
2019-01-30T22:05:48.961Z,24.67
2019-01-30T22:08:19.950Z,23.30
2019-01-30T22:10:50.325Z,22.03
2019-01-30T22:13:22.234Z,22.17
2019-01-30T22:15:54.138Z,21.57
2019-01-30T22:18:26.670Z,22.50
2019-01-30T22:20:57.811Z,22.40
2019-01-30T22:23:28.664Z,20.30
2019-01-30T22:25:59.800Z,22.70
2019-01-30T22:28:31.248Z,22.73
2019-01-30T22:31:02.128Z,21.97
2019-01-30T22:33:33.843Z,25.50
2019-01-30T22:36:05.226Z,22.70
2019-01-30T22:38:35.925Z,20.03
2019-01-30T22:41:06.968Z,21.23
2019-01-30T22:43:37.798Z,22.40
2019-01-30T22:46:09.119Z,21.60
2019-01-30T22:48:40.318Z,22.07
2019-01-30T22:51:11.232Z,23.37
2019-01-30T22:53:42.110Z,21.73
2019-01-30T22:56:13.209Z,21.50
2019-01-30T22:58:44.358Z,20.87
2019-01-30T23:01:25.358Z,22.67
2019-01-30T23:04:30.578Z,23.13
2019-01-30T23:07:26.483Z,21.60
2019-01-30T23:10:41.065Z,22.73
2019-01-30T23:13:37.225Z,21.70
2019-01-30T23:16:41.405Z,21.20
2019-01-30T23:19:29.758Z,21.07
2019-01-30T23:22:45.446Z,22.57
2019-01-30T23:25:40.758Z,22.00
2019-01-30T23:28:51.323Z,21.93
2019-01-30T23:31:59.536Z,21.27
2019-01-30T23:35:29.837Z,24.53
2019-01-30T23:38:46.366Z,20.00
2019-01-30T23:41:49.774Z,19.60
2019-01-30T23:44:52.551Z,21.67
2019-01-30T23:48:18.997Z,22.60
2019-01-30T23:51:23.961Z,22.50
2019-01-30T23:54:15.301Z,22.33
2019-01-30T23:57:04.547Z,21.30
